createdAt,value
2022-08-05T13:28:28.062Z,31.88
2022-08-05T13:34:22.648Z,32.45
2022-08-05T13:38:56.484Z,32.76
2022-08-05T13:43:59.540Z,33.00
2022-08-05T13:49:10.122Z,33.18
2022-08-05T13:54:15.429Z,33.31
2022-08-05T13:59:24.157Z,33.42
2022-08-05T14:04:51.482Z,33.52
2022-08-05T14:09:53.954Z,33.69
2022-08-05T14:16:03.896Z,33.87
2022-08-05T14:20:30.077Z,34.05
2022-08-05T14:25:32.215Z,34.07
2022-08-05T14:30:42.994Z,34.07
2022-08-05T14:35:54.970Z,34.18
2022-08-05T14:40:57.448Z,34.29
2022-08-05T14:46:02.499Z,34.31
2022-08-05T14:51:05.272Z,34.30
2022-08-05T14:56:13.522Z,34.28
2022-08-05T15:01:22.762Z,34.27
2022-08-05T15:06:49.414Z,34.27
2022-08-05T15:12:27.683Z,34.23
2022-08-05T15:17:46.191Z,34.22
2022-08-05T15:22:54.866Z,34.24
2022-08-05T15:28:06.623Z,34.28
2022-08-05T15:34:04.916Z,34.32
2022-08-05T15:38:41.811Z,34.33
2022-08-05T15:43:47.527Z,34.32
2022-08-05T15:49:01.407Z,34.26
2022-08-05T15:54:38.264Z,34.18
2022-08-05T15:59:57.805Z,34.14
2022-08-05T16:05:09.727Z,34.11
2022-08-05T16:10:16.548Z,34.06
2022-08-05T16:15:47.240Z,33.98
2022-08-05T16:21:59.417Z,33.91
2022-08-05T16:27:00.511Z,33.82
2022-08-05T16:32:12.012Z,33.72
2022-08-05T16:38:01.799Z,33.60
2022-08-05T16:42:38.696Z,33.49
2022-08-05T16:48:02.931Z,33.36
2022-08-05T16:53:32.470Z,33.22
2022-08-05T16:58:49.988Z,33.05
2022-08-05T17:04:05.429Z,32.91
2022-08-05T17:09:12.841Z,32.77
2022-08-05T17:14:37.407Z,32.64
2022-08-05T17:19:55.610Z,32.48
2022-08-05T17:25:33.897Z,32.32
2022-08-05T17:30:51.687Z,32.14
2022-08-05T17:36:33.970Z,31.94
2022-08-05T17:42:17.707Z,31.67
2022-08-05T17:47:53.561Z,31.31
2022-08-05T17:53:13.749Z,30.95
2022-08-05T17:58:21.599Z,30.61
2022-08-05T18:03:59.009Z,30.29
2022-08-05T18:09:09.772Z,29.95
2022-08-05T18:14:56.391Z,29.65
2022-08-05T18:20:14.058Z,29.33
2022-08-05T18:25:17.894Z,29.03
2022-08-05T18:30:41.143Z,28.75
2022-08-05T18:36:03.377Z,28.46
2022-08-05T18:41:57.291Z,28.16
2022-08-05T18:46:44.192Z,27.88
2022-08-05T18:52:32.766Z,27.62
2022-08-05T18:58:03.140Z,27.34
2022-08-05T19:03:05.891Z,27.10
2022-08-05T19:08:16.905Z,26.89
2022-08-05T19:13:47.896Z,26.67
2022-08-05T19:19:46.784Z,26.47
2022-08-05T19:25:21.650Z,26.30
2022-08-05T19:30:52.319Z,26.11
2022-08-05T19:36:09.033Z,25.93
2022-08-05T19:42:06.915Z,25.75
2022-08-05T19:47:23.360Z,25.56
2022-08-05T19:52:49.115Z,25.37
2022-08-05T19:58:28.251Z,25.19
2022-08-05T20:03:43.081Z,25.05
2022-08-05T20:08:47.526Z,24.93
